Rutland, Illinois
Current Conditions -  °F | °C
As of 6:55 PM on Saturday 20 Dec 2014 (Local Time) from KC75 Reporting Station
Overcast Overcast  
Wind Chill: 27°   Ceiling: 4200
Heat Index: 32°   Visibility: 7mi
Dew Point: 28°   Wind: 6mph
Humidity: 83%   Direction: 160°SSE
Pressure: 30.25"   Gusts: NA
Location:  40.98°N, 89.04°W
Report Text: KC75 210055Z AUTO 16005KT 7SM OVC042 00/M02 A3025 RMK AO2 T00021023
Loading
Personal Weather Stations






























Interactive Weather Map New forecast layout! Learn more

10-Day Weather Forecast

Advertisements
Track Severe Weather on mobile